createdAt,value
2024-02-11T00:00:33.626Z,85166.31
2024-02-11T00:03:00.430Z,85180.66
2024-02-11T00:05:29.813Z,85156.66
2024-02-11T00:07:56.819Z,85187.41
2024-02-11T00:10:24.565Z,85200.34
2024-02-11T00:12:51.383Z,85193.56
2024-02-11T00:15:18.100Z,85183.31
2024-02-11T00:17:46.701Z,85189.41
2024-02-11T00:20:17.308Z,85178.56
2024-02-11T00:22:45.827Z,85194.22
2024-02-11T00:25:12.814Z,85198.97
2024-02-11T00:27:40.987Z,85207.22
2024-02-11T00:30:08.093Z,85210.00
2024-02-11T00:32:35.071Z,85237.81
2024-02-11T00:35:02.577Z,85224.25
2024-02-11T00:37:31.233Z,85213.41
2024-02-11T00:39:58.336Z,85237.25
2024-02-11T00:42:29.374Z,85237.91
2024-02-11T00:44:56.561Z,85249.53
2024-02-11T00:47:23.942Z,85248.88
2024-02-11T00:49:50.974Z,85218.31
2024-02-11T00:52:17.691Z,85224.31
2024-02-11T00:54:44.345Z,85221.75
2024-02-11T00:57:11.043Z,85224.25
2024-02-11T00:59:38.619Z,85225.63
2024-02-11T01:02:05.323Z,85237.94
2024-02-11T01:04:32.187Z,85221.56
2024-02-11T01:06:59.459Z,85233.22
2024-02-11T01:09:26.745Z,85231.09
2024-02-11T01:11:53.514Z,85242.19
2024-02-11T01:14:20.216Z,85234.59
2024-02-11T01:16:46.873Z,85223.66
2024-02-11T01:19:13.852Z,85225.69
2024-02-11T01:21:40.449Z,85228.47
2024-02-11T01:24:07.150Z,85220.25
2024-02-11T01:26:38.148Z,85216.19
2024-02-11T01:29:06.315Z,85212.00
2024-02-11T01:31:33.032Z,85216.84
2024-02-11T01:33:59.794Z,85211.88
2024-02-11T01:36:26.424Z,85202.31
2024-02-11T01:38:54.700Z,85218.84
2024-02-11T01:41:21.260Z,85195.63
2024-02-11T01:43:48.322Z,85203.72
2024-02-11T01:46:15.006Z,85190.09
2024-02-11T01:48:41.784Z,85181.84
2024-02-11T01:51:08.705Z,85187.25
2024-02-11T01:53:38.209Z,85191.31
2024-02-11T01:56:05.522Z,85179.13
2024-02-11T01:58:32.607Z,85181.88
2024-02-11T02:01:00.122Z,85179.13
2024-02-11T02:03:26.802Z,85175.03
2024-02-11T02:05:53.577Z,85169.47
2024-02-11T02:08:22.673Z,85157.28
2024-02-11T02:10:49.374Z,85175.13
2024-02-11T02:13:16.059Z,85174.28
2024-02-11T02:15:43.680Z,85185.28
2024-02-11T02:18:11.487Z,85163.47
2024-02-11T02:20:38.281Z,85159.38
2024-02-11T02:23:05.060Z,85153.78
2024-02-11T02:25:34.349Z,85147.63
2024-02-11T02:28:07.020Z,85136.03
2024-02-11T02:30:34.960Z,85135.31
2024-02-11T02:33:01.715Z,85137.34
2024-02-11T02:35:28.377Z,85133.94
2024-02-11T02:37:55.609Z,85129.81
2024-02-11T02:40:27.901Z,85140.78
2024-02-11T02:42:54.847Z,85119.00
2024-02-11T02:45:21.566Z,85130.03
2024-02-11T02:47:48.859Z,85123.13
2024-02-11T02:50:18.964Z,85131.28
2024-02-11T02:52:45.738Z,85121.81
2024-02-11T02:55:12.437Z,85106.78
2024-02-11T02:57:39.183Z,85104.75
2024-02-11T03:00:06.948Z,85124.38
2024-02-11T03:02:33.869Z,85121.69
2024-02-11T03:05:01.917Z,85115.59
2024-02-11T03:07:28.521Z,85104.66
2024-02-11T03:09:55.176Z,85112.97
2024-02-11T03:12:21.805Z,85114.31
2024-02-11T03:14:48.966Z,85099.19
2024-02-11T03:17:15.769Z,85090.97
2024-02-11T03:19:44.990Z,85093.00
2024-02-11T03:22:14.730Z,85108.13
2024-02-11T03:24:41.375Z,85101.41
2024-02-11T03:27:08.183Z,85105.47
2024-02-11T03:29:35.019Z,85104.75
2024-02-11T03:32:01.775Z,85098.56
2024-02-11T03:34:28.501Z,85095.84
2024-02-11T03:36:55.201Z,85090.41
2024-02-11T03:39:22.426Z,85095.09
2024-02-11T03:41:49.007Z,85102.06
2024-02-11T03:44:15.670Z,85105.50
2024-02-11T03:46:42.322Z,85105.47
2024-02-11T03:49:08.950Z,85102.66
2024-02-11T03:51:35.626Z,85108.94
2024-02-11T03:54:02.531Z,85105.50
2024-02-11T03:56:30.472Z,85098.66
2024-02-11T03:58:57.641Z,85111.66
2024-02-11T04:01:24.400Z,85110.25
2024-02-11T04:03:51.163Z,85108.19
2024-02-11T04:06:19.218Z,85106.81
2024-02-11T04:08:45.973Z,85104.09
2024-02-11T04:11:12.840Z,85097.34
2024-02-11T04:13:39.692Z,85110.97
2024-02-11T04:16:12.626Z,85087.75
2024-02-11T04:18:39.741Z,85101.38
2024-02-11T04:21:06.449Z,85102.09
2024-02-11T04:23:36.118Z,85113.06
2024-02-11T04:26:03.052Z,85093.88
2024-02-11T04:28:30.103Z,85108.19
2024-02-11T04:30:57.005Z,85110.91
2024-02-11T04:33:23.858Z,85098.63
2024-02-11T04:35:51.367Z,85080.78
2024-02-11T04:38:19.244Z,85060.25
2024-02-11T04:40:46.096Z,85089.00
2024-02-11T04:43:14.307Z,85071.94
2024-02-11T04:45:41.173Z,85087.00
2024-02-11T04:48:08.295Z,85082.16
2024-02-11T04:50:36.508Z,85089.03
2024-02-11T04:53:04.467Z,85091.66
2024-02-11T04:55:41.497Z,85072.53
2024-02-11T04:58:15.448Z,85082.13
2024-02-11T05:00:42.765Z,85086.22
2024-02-11T05:03:09.534Z,85097.25
2024-02-11T05:05:38.471Z,85085.59
2024-02-11T05:08:05.494Z,85098.59
2024-02-11T05:10:35.456Z,85091.09
2024-02-11T05:13:06.217Z,85080.09
2024-02-11T05:15:33.401Z,85088.94
2024-02-11T05:18:01.847Z,85080.78
2024-02-11T05:20:29.186Z,85079.53
2024-02-11T05:22:56.974Z,85097.22
2024-02-11T05:25:24.381Z,85090.41
2024-02-11T05:27:56.989Z,85099.91
2024-02-11T05:30:30.446Z,85118.44
2024-02-11T05:32:58.562Z,85116.38
2024-02-11T05:35:25.777Z,85117.75
2024-02-11T05:38:00.188Z,85110.88
2024-02-11T05:40:30.418Z,85121.75
2024-02-11T05:42:57.231Z,85106.75
2024-02-11T05:45:24.283Z,85132.84
2024-02-11T05:47:51.187Z,85119.84
2024-02-11T05:50:18.289Z,85119.00
2024-02-11T05:52:45.382Z,85130.03
2024-02-11T05:55:14.000Z,85134.13
2024-02-11T05:57:41.073Z,85155.28
2024-02-11T06:00:13.547Z,85132.66
2024-02-11T06:02:41.101Z,85150.56
2024-02-11T06:05:08.046Z,85139.63
2024-02-11T06:07:38.809Z,85117.72
2024-02-11T06:10:05.834Z,85130.03
2024-02-11T06:12:32.787Z,85135.56
2024-02-11T06:14:59.715Z,85117.72
2024-02-11T06:17:26.705Z,85130.75
2024-02-11T06:19:54.749Z,85124.56
2024-02-11T06:22:22.874Z,85130.75
2024-02-11T06:24:49.730Z,85108.84
2024-02-11T06:27:16.358Z,85113.63
2024-02-11T06:29:43.372Z,85123.13
2024-02-11T06:32:10.440Z,85123.06
2024-02-11T06:34:37.726Z,85139.56
2024-02-11T06:37:05.213Z,85121.81
2024-02-11T06:39:31.937Z,85110.19
2024-02-11T06:42:03.964Z,85123.88
2024-02-11T06:44:30.740Z,85125.22
2024-02-11T06:46:58.347Z,85118.34
2024-02-11T06:49:25.519Z,85108.16
2024-02-11T06:51:56.669Z,85132.78
2024-02-11T06:54:23.988Z,85125.22
2024-02-11T06:56:53.600Z,85128.63
2024-02-11T06:59:20.495Z,85125.88
2024-02-11T07:01:48.051Z,85140.97
2024-02-11T07:04:14.741Z,85167.00
2024-02-11T07:06:45.655Z,85128.59
2024-02-11T07:09:12.791Z,85138.88
2024-02-11T07:11:40.010Z,85116.34
2024-02-11T07:14:09.712Z,85139.56
2024-02-11T07:16:39.541Z,85124.47
2024-02-11T07:19:09.342Z,85132.72
2024-02-11T07:21:38.206Z,85133.41
2024-02-11T07:24:08.107Z,85130.72
2024-02-11T07:26:35.177Z,85157.34
2024-02-11T07:29:01.965Z,85125.97
2024-02-11T07:31:28.711Z,85132.03
2024-02-11T07:33:55.786Z,85127.97
2024-02-11T07:36:25.530Z,85132.13
2024-02-11T07:38:54.784Z,85141.75
2024-02-11T07:41:21.871Z,85142.34
2024-02-11T07:43:49.070Z,85128.75
2024-02-11T07:46:15.838Z,85126.69
2024-02-11T07:48:42.773Z,85111.69
2024-02-11T07:51:09.660Z,85114.38
2024-02-11T07:53:36.327Z,85108.88
2024-02-11T07:56:03.423Z,85106.13
2024-02-11T07:58:30.141Z,85099.31
2024-02-11T08:00:57.124Z,85108.13
2024-02-11T08:03:24.809Z,85105.41
2024-02-11T08:05:51.764Z,85106.06
2024-02-11T08:08:18.590Z,85106.81
2024-02-11T08:10:45.332Z,85108.22
2024-02-11T08:13:11.989Z,85113.69
2024-02-11T08:15:38.796Z,85102.69
2024-02-11T08:18:07.430Z,85105.47
2024-02-11T08:20:34.345Z,85110.19
2024-02-11T08:23:01.207Z,85125.31
2024-02-11T08:25:27.911Z,85109.50
2024-02-11T08:27:54.662Z,85121.81
2024-02-11T08:30:26.416Z,85121.84
2024-02-11T08:32:53.863Z,85111.56
2024-02-11T08:35:21.764Z,85114.25
2024-02-11T08:37:48.761Z,85114.28
2024-02-11T08:40:15.430Z,85129.34
2024-02-11T08:42:42.496Z,85123.22
2024-02-11T08:45:09.373Z,85129.34
2024-02-11T08:47:36.256Z,85124.53
2024-02-11T08:50:03.185Z,85132.72
2024-02-11T08:52:29.886Z,85123.91
2024-02-11T08:54:56.554Z,85131.34
2024-02-11T08:57:28.295Z,85124.50
2024-02-11T08:59:56.309Z,85136.94
2024-02-11T09:02:30.671Z,85132.75
2024-02-11T09:04:59.655Z,85117.03
2024-02-11T09:07:26.421Z,85127.91
2024-02-11T09:09:53.156Z,85126.53
2024-02-11T09:12:19.826Z,85129.97
2024-02-11T09:14:48.411Z,85130.03
2024-02-11T09:17:15.849Z,85147.16
2024-02-11T09:19:42.638Z,85136.88
2024-02-11T09:22:09.336Z,85131.47
2024-02-11T09:24:40.127Z,85137.59
2024-02-11T09:27:08.667Z,85169.72
2024-02-11T09:29:35.460Z,85147.88
2024-02-11T09:32:04.365Z,85152.00
2024-02-11T09:34:31.358Z,85161.53
2024-02-11T09:36:58.116Z,85147.22
2024-02-11T09:39:24.891Z,85148.56
2024-02-11T09:41:51.698Z,85160.88
2024-02-11T09:44:26.969Z,85161.50
2024-02-11T09:46:54.178Z,85138.31
2024-02-11T09:49:21.867Z,85149.22
2024-02-11T09:51:48.751Z,85120.53
2024-02-11T09:54:16.546Z,85144.47
2024-02-11T09:56:43.559Z,85140.97
2024-02-11T09:59:13.995Z,85119.13
2024-02-11T10:01:43.051Z,85115.69
2024-02-11T10:04:10.413Z,85139.63
2024-02-11T10:06:40.996Z,85113.66
2024-02-11T10:09:07.833Z,85105.50
2024-02-11T10:11:37.963Z,85119.13
2024-02-11T10:14:09.787Z,85099.88
2024-02-11T10:16:36.622Z,85106.72
2024-02-11T10:19:03.349Z,85098.44
2024-02-11T10:21:29.974Z,85073.19
2024-02-11T10:23:56.746Z,85081.34
2024-02-11T10:26:23.769Z,85062.22
2024-02-11T10:28:50.610Z,85060.09
2024-02-11T10:31:17.347Z,85058.16
2024-02-11T10:33:44.458Z,85050.56
2024-02-11T10:36:12.709Z,85041.72
2024-02-11T10:38:41.141Z,85027.38
2024-02-11T10:41:08.087Z,85032.88
2024-02-11T10:43:34.903Z,85035.63
2024-02-11T10:46:03.174Z,85045.19
2024-02-11T10:48:29.993Z,85039.75
2024-02-11T10:51:02.716Z,85039.72
2024-02-11T10:53:29.419Z,85019.81
2024-02-11T10:55:56.191Z,85042.44
2024-02-11T10:58:23.001Z,85036.19
2024-02-11T11:00:51.922Z,85056.75
2024-02-11T11:03:21.242Z,85035.63
2024-02-11T11:05:48.938Z,85049.25
2024-02-11T11:08:15.844Z,85040.38
2024-02-11T11:10:42.904Z,85055.44
2024-02-11T11:13:10.154Z,85044.50
2024-02-11T11:15:37.100Z,85028.88
2024-02-11T11:18:04.477Z,85023.34
2024-02-11T11:20:35.414Z,85035.63
2024-02-11T11:23:02.705Z,85039.81
2024-02-11T11:25:33.632Z,85021.41
2024-02-11T11:28:16.248Z,85033.66
2024-02-11T11:30:43.287Z,85019.94
2024-02-11T11:33:13.168Z,85015.19
2024-02-11T11:35:41.429Z,85019.38
2024-02-11T11:38:08.610Z,85024.84
2024-02-11T11:40:39.278Z,85009.06
2024-02-11T11:43:19.190Z,84997.47
2024-02-11T11:45:58.728Z,85009.81
2024-02-11T11:48:27.744Z,85001.56
2024-02-11T11:50:55.440Z,84974.84
2024-02-11T11:53:22.565Z,85017.25
2024-02-11T11:55:50.312Z,84987.84
2024-02-11T11:58:21.356Z,85001.56
2024-02-11T12:00:54.691Z,84980.31
2024-02-11T12:03:21.401Z,84983.06
2024-02-11T12:05:48.418Z,84990.59
2024-02-11T12:08:16.058Z,84976.22
2024-02-11T12:10:42.925Z,84985.84
2024-02-11T12:13:15.246Z,84971.47
2024-02-11T12:15:43.150Z,84957.09
2024-02-11T12:18:12.682Z,84959.84
2024-02-11T12:20:44.490Z,84975.56
2024-02-11T12:23:12.536Z,84986.47
2024-02-11T12:25:40.682Z,84964.63
2024-02-11T12:28:17.423Z,84970.75
2024-02-11T12:30:48.110Z,84978.25
2024-02-11T12:33:14.926Z,84964.59
2024-02-11T12:35:42.192Z,84968.75
2024-02-11T12:38:08.787Z,84984.81
2024-02-11T12:40:35.666Z,84988.41
2024-02-11T12:43:02.383Z,84982.88
2024-02-11T12:45:29.814Z,84971.81
2024-02-11T12:47:56.692Z,84976.53
2024-02-11T12:50:25.953Z,84958.22
2024-02-11T12:52:53.172Z,84960.19
2024-02-11T12:55:20.591Z,84981.31
2024-02-11T12:57:48.080Z,84980.72
2024-02-11T13:00:16.467Z,84968.41
2024-02-11T13:02:43.999Z,84960.19
2024-02-11T13:05:12.403Z,84957.44
2024-02-11T13:07:39.633Z,84932.78
2024-02-11T13:10:10.249Z,84954.03
2024-02-11T13:12:39.842Z,84969.06
2024-02-11T13:15:09.984Z,84967.03
2024-02-11T13:17:36.863Z,84961.56
2024-02-11T13:20:07.079Z,84957.44
2024-02-11T13:22:35.064Z,84953.31
2024-02-11T13:25:02.209Z,84952.63
2024-02-11T13:27:28.911Z,84967.66
2024-02-11T13:29:55.697Z,84940.28
2024-02-11T13:32:22.586Z,84951.88
2024-02-11T13:34:49.474Z,84946.38
2024-02-11T13:37:17.959Z,84958.00
2024-02-11T13:39:44.616Z,84953.91
2024-02-11T13:42:11.277Z,84960.03
2024-02-11T13:44:39.740Z,84938.16
2024-02-11T13:47:09.096Z,84951.13
2024-02-11T13:49:36.496Z,84922.41
2024-02-11T13:52:03.173Z,84923.75
2024-02-11T13:54:30.013Z,84917.59
2024-02-11T13:56:56.666Z,84912.81
2024-02-11T13:59:23.849Z,84929.22
2024-02-11T14:01:51.239Z,84923.72
2024-02-11T14:04:18.210Z,84947.00
2024-02-11T14:06:48.038Z,84931.94
2024-02-11T14:09:16.982Z,84919.56
2024-02-11T14:11:44.121Z,84920.94
2024-02-11T14:14:11.612Z,84910.75
2024-02-11T14:16:38.723Z,84910.09
2024-02-11T14:19:06.097Z,84897.03
2024-02-11T14:21:33.951Z,84907.28
2024-02-11T14:24:02.229Z,84914.84
2024-02-11T14:26:29.918Z,84923.00
2024-02-11T14:28:56.762Z,84905.88
2024-02-11T14:31:24.568Z,84917.56
2024-02-11T14:33:51.624Z,84930.50
2024-02-11T14:36:18.832Z,84942.13
2024-02-11T14:38:45.690Z,84929.19
2024-02-11T14:41:13.159Z,84925.06
2024-02-11T14:43:39.954Z,84923.59
2024-02-11T14:46:07.862Z,84925.16
2024-02-11T14:48:34.738Z,84914.78
2024-02-11T14:51:01.740Z,84899.13
2024-02-11T14:53:28.436Z,84905.44
2024-02-11T14:55:56.285Z,84920.28
2024-02-11T14:58:24.497Z,84908.59
2024-02-11T15:00:51.605Z,84914.78
2024-02-11T15:03:18.452Z,84895.59
2024-02-11T15:05:46.090Z,84886.06
2024-02-11T15:08:13.178Z,84888.13
2024-02-11T15:10:39.906Z,84886.72
2024-02-11T15:13:06.551Z,84878.53
2024-02-11T15:15:33.410Z,84885.31
2024-02-11T15:18:00.309Z,84868.25
2024-02-11T15:20:27.116Z,84914.06
2024-02-11T15:22:53.937Z,84870.31
2024-02-11T15:25:20.637Z,84884.63
2024-02-11T15:27:47.222Z,84914.13
2024-02-11T15:30:15.559Z,84897.69
2024-02-11T15:32:42.489Z,84910.72
2024-02-11T15:35:09.592Z,84907.28
2024-02-11T15:37:36.403Z,84916.13
2024-02-11T15:40:04.033Z,84892.22
2024-02-11T15:42:30.785Z,84926.44
2024-02-11T15:44:57.459Z,84942.16
2024-02-11T15:47:25.415Z,84908.63
2024-02-11T15:49:52.218Z,84919.59
2024-02-11T15:52:18.861Z,84912.00
2024-02-11T15:54:46.006Z,84902.50
2024-02-11T15:57:16.216Z,84903.16
2024-02-11T15:59:44.453Z,84905.88
2024-02-11T16:02:11.783Z,84909.97
2024-02-11T16:04:38.543Z,84908.66
2024-02-11T16:07:05.317Z,84896.31
2024-02-11T16:09:34.613Z,84885.38
2024-02-11T16:12:01.288Z,84897.72
2024-02-11T16:14:28.039Z,84896.28
2024-02-11T16:16:55.797Z,84881.25
2024-02-11T16:19:24.563Z,84883.97
2024-02-11T16:21:52.709Z,84880.56
2024-02-11T16:24:19.314Z,84909.97
2024-02-11T16:26:46.070Z,84903.75
2024-02-11T16:29:13.240Z,84927.03
2024-02-11T16:31:46.101Z,84938.03
2024-02-11T16:34:13.782Z,84909.97
2024-02-11T16:36:41.777Z,84918.88
2024-02-11T16:39:11.055Z,84937.34
2024-02-11T16:41:38.198Z,84916.16
2024-02-11T16:44:05.421Z,84891.53
2024-02-11T16:46:34.098Z,84881.91
2024-02-11T16:49:01.229Z,84894.94
2024-02-11T16:51:27.996Z,84887.41
2024-02-11T16:53:54.777Z,84877.81
2024-02-11T16:56:21.684Z,84852.50
2024-02-11T16:58:48.531Z,84890.75
2024-02-11T17:01:15.374Z,84862.03
2024-02-11T17:03:42.307Z,84892.09
2024-02-11T17:06:09.325Z,84894.19
2024-02-11T17:08:36.100Z,84889.41
2024-02-11T17:11:08.587Z,84869.63
2024-02-11T17:13:35.644Z,84870.31
2024-02-11T17:16:05.898Z,84890.13
2024-02-11T17:18:34.165Z,84901.06
2024-02-11T17:21:10.103Z,84894.19
2024-02-11T17:23:39.287Z,84901.03
2024-02-11T17:26:08.708Z,84894.88
2024-02-11T17:28:36.618Z,84901.03
2024-02-11T17:31:03.832Z,84883.94
2024-02-11T17:33:30.909Z,84880.56
2024-02-11T17:35:59.853Z,84871.66
2024-02-11T17:38:30.638Z,84887.34
2024-02-11T17:40:57.576Z,84874.41
2024-02-11T17:43:24.836Z,84881.25
2024-02-11T17:45:51.478Z,84873.00
2024-02-11T17:48:18.376Z,84862.09
2024-02-11T17:50:49.201Z,84877.06
2024-02-11T17:53:17.015Z,84873.75
2024-02-11T17:55:44.478Z,84868.25
2024-02-11T17:58:12.528Z,84866.13
2024-02-11T18:00:49.832Z,84863.41
2024-02-11T18:03:21.966Z,84860.66
2024-02-11T18:05:48.807Z,84864.09
2024-02-11T18:08:15.617Z,84866.13
2024-02-11T18:10:43.417Z,84865.41
2024-02-11T18:13:10.979Z,84881.19
2024-02-11T18:15:40.086Z,84865.53
2024-02-11T18:18:07.693Z,84870.97
2024-02-11T18:20:34.647Z,84859.34
2024-02-11T18:23:01.459Z,84862.09
2024-02-11T18:25:42.110Z,84844.28
2024-02-11T18:28:17.933Z,84844.25
2024-02-11T18:30:45.544Z,84840.13
2024-02-11T18:33:14.849Z,84855.19
2024-02-11T18:35:41.767Z,84871.66
2024-02-11T18:38:08.546Z,84858.66
2024-02-11T18:40:35.189Z,84873.00
2024-02-11T18:43:01.808Z,84870.25
2024-02-11T18:45:28.613Z,84886.66
2024-02-11T18:47:56.702Z,84886.69
2024-02-11T18:50:24.100Z,84869.59
2024-02-11T18:52:51.008Z,84862.78
2024-02-11T18:55:17.782Z,84857.31
2024-02-11T18:57:47.542Z,84870.28
2024-02-11T19:00:18.135Z,84893.47
2024-02-11T19:02:45.093Z,84890.81
2024-02-11T19:05:11.952Z,84875.06
2024-02-11T19:07:39.208Z,84924.97
2024-02-11T19:10:06.042Z,84907.88
2024-02-11T19:12:34.992Z,84879.88
2024-02-11T19:15:05.189Z,84872.97
2024-02-11T19:17:31.952Z,84874.34
2024-02-11T19:19:58.700Z,84868.84
2024-02-11T19:22:25.579Z,84852.47
2024-02-11T19:24:52.896Z,84889.41
2024-02-11T19:27:19.577Z,84866.88
2024-02-11T19:29:46.241Z,84882.59
2024-02-11T19:32:13.053Z,84886.69
2024-02-11T19:34:39.790Z,84892.84
2024-02-11T19:37:09.172Z,84853.88
2024-02-11T19:39:37.132Z,84851.16
2024-02-11T19:42:04.036Z,84862.03
2024-02-11T19:44:32.160Z,84890.81
2024-02-11T19:47:03.962Z,84888.09
2024-02-11T19:49:31.791Z,84901.81
2024-02-11T19:51:58.787Z,84888.13
2024-02-11T19:54:29.813Z,84877.13
2024-02-11T19:56:58.686Z,84903.16
2024-02-11T19:59:27.133Z,84871.66
2024-02-11T20:01:53.856Z,84871.66
2024-02-11T20:04:21.650Z,84878.47
2024-02-11T20:06:48.379Z,84892.19
2024-02-11T20:09:16.291Z,84879.16
2024-02-11T20:11:45.436Z,84892.84
2024-02-11T20:14:12.348Z,84888.00
2024-02-11T20:16:44.966Z,84896.88
2024-02-11T20:19:12.588Z,84866.84
2024-02-11T20:21:39.338Z,84874.41
2024-02-11T20:24:09.296Z,84869.63
2024-02-11T20:26:37.618Z,84872.31
2024-02-11T20:29:04.388Z,84868.25
2024-02-11T20:31:31.276Z,84892.16
2024-02-11T20:33:57.988Z,84871.66
2024-02-11T20:36:25.863Z,84866.84
2024-02-11T20:38:54.617Z,84888.00
2024-02-11T20:41:21.641Z,84865.47
2024-02-11T20:43:48.415Z,84859.34
2024-02-11T20:46:15.168Z,84860.03
2024-02-11T20:48:42.080Z,84830.56
2024-02-11T20:51:09.579Z,84877.06
2024-02-11T20:53:36.332Z,84848.38
2024-02-11T20:56:04.077Z,84845.63
2024-02-11T20:58:34.778Z,84839.53
2024-02-11T21:01:03.135Z,84843.63
2024-02-11T21:03:30.298Z,84826.50
2024-02-11T21:05:57.316Z,84819.00
2024-02-11T21:08:24.824Z,84836.16
2024-02-11T21:10:53.767Z,84808.75
2024-02-11T21:13:21.275Z,84862.78
2024-02-11T21:15:49.272Z,84840.84
2024-02-11T21:18:16.078Z,84863.50
2024-02-11T21:20:43.724Z,84869.63
2024-02-11T21:23:10.919Z,84884.66
2024-02-11T21:25:37.896Z,84857.94
2024-02-11T21:28:04.675Z,84834.72
2024-02-11T21:30:31.399Z,84834.03
2024-02-11T21:33:00.038Z,84847.75
2024-02-11T21:35:28.629Z,84836.09
2024-02-11T21:37:55.625Z,84850.41
2024-02-11T21:40:22.474Z,84836.75
2024-02-11T21:42:51.242Z,84845.66
2024-02-11T21:45:19.484Z,84829.94
2024-02-11T21:47:46.477Z,84832.00
2024-02-11T21:50:14.382Z,84823.06
2024-02-11T21:52:41.783Z,84834.72
2024-02-11T21:55:10.910Z,84845.66
2024-02-11T21:57:41.698Z,84823.75
2024-02-11T22:00:14.862Z,84814.88
2024-02-11T22:02:42.177Z,84825.81
2024-02-11T22:05:09.145Z,84829.91
2024-02-11T22:07:36.786Z,84817.59
2024-02-11T22:10:06.611Z,84813.50
2024-02-11T22:12:33.431Z,84838.09
2024-02-11T22:15:00.096Z,84829.22
2024-02-11T22:17:28.785Z,84812.13
2024-02-11T22:19:55.667Z,84790.25
2024-02-11T22:22:22.381Z,84799.16
2024-02-11T22:24:49.398Z,84818.94
2024-02-11T22:27:16.227Z,84811.44
2024-02-11T22:29:46.085Z,84807.38
2024-02-11T22:32:13.065Z,84819.63
2024-02-11T22:34:40.809Z,84820.41
2024-02-11T22:37:07.546Z,84812.13
2024-02-11T22:39:34.196Z,84813.47
2024-02-11T22:42:00.950Z,84825.09
2024-02-11T22:44:27.689Z,84815.56
2024-02-11T22:46:55.036Z,84811.47
2024-02-11T22:49:22.104Z,84790.25
2024-02-11T22:51:49.551Z,84802.56
2024-02-11T22:54:18.617Z,84804.59
2024-02-11T22:56:45.327Z,84801.84
2024-02-11T22:59:13.552Z,84795.03
2024-02-11T23:01:40.507Z,84803.25
2024-02-11T23:04:12.775Z,84808.72
2024-02-11T23:06:42.835Z,84814.19
2024-02-11T23:09:09.780Z,84821.03
2024-02-11T23:11:36.598Z,84816.91
2024-02-11T23:14:03.493Z,84812.13
2024-02-11T23:16:33.419Z,84805.28
2024-02-11T23:19:00.691Z,84814.84
2024-02-11T23:21:27.410Z,84803.25
2024-02-11T23:23:54.626Z,84811.41
2024-02-11T23:26:21.308Z,84810.06
2024-02-11T23:28:49.004Z,84801.19
2024-02-11T23:31:16.035Z,84802.56
2024-02-11T23:33:44.832Z,84800.47
2024-02-11T23:36:13.399Z,84783.41
2024-02-11T23:38:41.043Z,84771.09
2024-02-11T23:41:08.552Z,84792.28
2024-02-11T23:43:35.824Z,84788.19
2024-02-11T23:46:03.845Z,84787.50
2024-02-11T23:48:30.619Z,84780.66
2024-02-11T23:51:00.806Z,84774.50
2024-02-11T23:53:28.291Z,84784.09
2024-02-11T23:55:55.084Z,84764.97
2024-02-11T23:58:21.797Z,84748.53
